sensor_id;sensor_type;location;lat;lon;timestamp;temperature;humidity
70475;DHT22;57944;48.722;9.316;2023-02-28T00:00:30;-2.60;99.90
70475;DHT22;57944;48.722;9.316;2023-02-28T00:03:03;-2.60;99.90
70475;DHT22;57944;48.722;9.316;2023-02-28T00:05:33;-2.60;99.90
70475;DHT22;57944;48.722;9.316;2023-02-28T00:08:06;-2.60;99.90
70475;DHT22;57944;48.722;9.316;2023-02-28T00:10:36;-2.60;99.90
70475;DHT22;57944;48.722;9.316;2023-02-28T00:13:06;-2.50;99.90
70475;DHT22;57944;48.722;9.316;2023-02-28T00:15:37;-2.40;99.90
70475;DHT22;57944;48.722;9.316;2023-02-28T00:18:07;-2.50;99.90
70475;DHT22;57944;48.722;9.316;2023-02-28T00:20:38;-2.30;99.90
70475;DHT22;57944;48.722;9.316;2023-02-28T00:23:11;-2.40;99.90
70475;DHT22;57944;48.722;9.316;2023-02-28T00:25:41;-2.40;99.90
70475;DHT22;57944;48.722;9.316;2023-02-28T00:28:11;-2.50;99.90
70475;DHT22;57944;48.722;9.316;2023-02-28T00:30:41;-2.50;99.90
70475;DHT22;57944;48.722;9.316;2023-02-28T00:33:12;-2.50;99.90
70475;DHT22;57944;48.722;9.316;2023-02-28T00:35:42;-2.40;99.90
70475;DHT22;57944;48.722;9.316;2023-02-28T00:38:16;-2.40;99.90
70475;DHT22;57944;48.722;9.316;2023-02-28T00:40:46;-2.40;99.90
70475;DHT22;57944;48.722;9.316;2023-02-28T00:43:16;-2.50;99.90
70475;DHT22;57944;48.722;9.316;2023-02-28T00:45:46;-2.40;99.90
70475;DHT22;57944;48.722;9.316;2023-02-28T00:48:16;-2.50;99.90
70475;DHT22;57944;48.722;9.316;2023-02-28T00:50:48;-2.50;99.90
70475;DHT22;57944;48.722;9.316;2023-02-28T00:53:21;-2.40;99.90
70475;DHT22;57944;48.722;9.316;2023-02-28T00:55:51;-2.40;99.90
70475;DHT22;57944;48.722;9.316;2023-02-28T00:58:21;-2.40;99.90
70475;DHT22;57944;48.722;9.316;2023-02-28T01:00:52;-2.40;99.90
70475;DHT22;57944;48.722;9.316;2023-02-28T01:03:23;-2.30;99.90
70475;DHT22;57944;48.722;9.316;2023-02-28T01:05:53;-2.30;99.90
70475;DHT22;57944;48.722;9.316;2023-02-28T01:08:25;-2.40;99.90
70475;DHT22;57944;48.722;9.316;2023-02-28T01:10:56;-2.50;99.90
70475;DHT22;57944;48.722;9.316;2023-02-28T01:13:26;-2.50;99.90
70475;DHT22;57944;48.722;9.316;2023-02-28T01:15:57;-2.50;99.90
70475;DHT22;57944;48.722;9.316;2023-02-28T01:18:27;-2.50;99.90
70475;DHT22;57944;48.722;9.316;2023-02-28T01:20:58;-2.60;99.90
70475;DHT22;57944;48.722;9.316;2023-02-28T01:23:35;-2.60;99.90
70475;DHT22;57944;48.722;9.316;2023-02-28T01:26:06;-2.40;99.90
70475;DHT22;57944;48.722;9.316;2023-02-28T01:28:39;-2.40;99.90
70475;DHT22;57944;48.722;9.316;2023-02-28T01:31:10;-2.50;99.90
70475;DHT22;57944;48.722;9.316;2023-02-28T01:33:41;-2.50;99.90
70475;DHT22;57944;48.722;9.316;2023-02-28T01:36:12;-2.50;99.90
70475;DHT22;57944;48.722;9.316;2023-02-28T01:38:47;-2.40;99.90
70475;DHT22;57944;48.722;9.316;2023-02-28T01:41:21;-2.40;99.90
70475;DHT22;57944;48.722;9.316;2023-02-28T01:44:00;-2.50;99.90
70475;DHT22;57944;48.722;9.316;2023-02-28T01:46:34;-2.60;99.90
70475;DHT22;57944;48.722;9.316;2023-02-28T01:49:09;-2.60;99.90
70475;DHT22;57944;48.722;9.316;2023-02-28T01:51:45;-2.60;99.90
70475;DHT22;57944;48.722;9.316;2023-02-28T01:54:27;-2.50;99.90
70475;DHT22;57944;48.722;9.316;2023-02-28T01:57:03;-2.50;99.90
70475;DHT22;57944;48.722;9.316;2023-02-28T01:59:38;-2.50;99.90
70475;DHT22;57944;48.722;9.316;2023-02-28T02:02:18;-2.30;99.90
70475;DHT22;57944;48.722;9.316;2023-02-28T02:04:54;-2.40;99.90
70475;DHT22;57944;48.722;9.316;2023-02-28T02:07:30;-2.50;99.90
70475;DHT22;57944;48.722;9.316;2023-02-28T02:10:11;-2.50;99.90
70475;DHT22;57944;48.722;9.316;2023-02-28T02:13:01;-2.50;99.90
70475;DHT22;57944;48.722;9.316;2023-02-28T02:15:42;-2.40;99.90
70475;DHT22;57944;48.722;9.316;2023-02-28T02:18:27;-2.40;99.90
70475;DHT22;57944;48.722;9.316;2023-02-28T02:24:54;-2.30;99.90
70475;DHT22;57944;48.722;9.316;2023-02-28T02:31:05;-2.20;99.90
70475;DHT22;57944;48.722;9.316;2023-02-28T02:34:22;-2.10;99.90
70475;DHT22;57944;48.722;9.316;2023-02-28T02:37:03;-2.10;99.90
70475;DHT22;57944;48.722;9.316;2023-02-28T02:39:44;-2.10;99.90
70475;DHT22;57944;48.722;9.316;2023-02-28T02:42:23;-2.20;99.90
70475;DHT22;57944;48.722;9.316;2023-02-28T02:45:01;-2.10;99.90
70475;DHT22;57944;48.722;9.316;2023-02-28T02:47:36;-1.80;99.90
70475;DHT22;57944;48.722;9.316;2023-02-28T02:50:14;-1.60;99.90
70475;DHT22;57944;48.722;9.316;2023-02-28T02:52:52;-1.50;99.90
70475;DHT22;57944;48.722;9.316;2023-02-28T02:55:30;-1.70;99.90
70475;DHT22;57944;48.722;9.316;2023-02-28T02:58:07;-1.80;99.90
70475;DHT22;57944;48.722;9.316;2023-02-28T03:00:42;-1.90;99.90
70475;DHT22;57944;48.722;9.316;2023-02-28T03:03:18;-1.90;99.90
70475;DHT22;57944;48.722;9.316;2023-02-28T03:05:59;-1.90;99.90
70475;DHT22;57944;48.722;9.316;2023-02-28T03:08:35;-1.80;99.90
70475;DHT22;57944;48.722;9.316;2023-02-28T03:11:12;-1.80;99.90
70475;DHT22;57944;48.722;9.316;2023-02-28T03:13:54;-2.00;99.90
70475;DHT22;57944;48.722;9.316;2023-02-28T03:16:35;-2.00;99.90
70475;DHT22;57944;48.722;9.316;2023-02-28T03:19:38;-1.90;99.90
70475;DHT22;57944;48.722;9.316;2023-02-28T03:22:37;-2.00;99.90
70475;DHT22;57944;48.722;9.316;2023-02-28T03:25:22;-1.90;99.90
70475;DHT22;57944;48.722;9.316;2023-02-28T03:28:05;-1.80;99.90
70475;DHT22;57944;48.722;9.316;2023-02-28T03:30:49;-1.80;99.90
70475;DHT22;57944;48.722;9.316;2023-02-28T03:33:23;-1.90;99.90
70475;DHT22;57944;48.722;9.316;2023-02-28T03:36:01;-1.80;99.90
70475;DHT22;57944;48.722;9.316;2023-02-28T03:38:39;-1.70;99.90
70475;DHT22;57944;48.722;9.316;2023-02-28T03:41:15;-1.40;99.90
70475;DHT22;57944;48.722;9.316;2023-02-28T03:43:52;-1.30;99.90
70475;DHT22;57944;48.722;9.316;2023-02-28T03:46:28;-1.30;99.90
70475;DHT22;57944;48.722;9.316;2023-02-28T03:49:05;-1.30;99.90
70475;DHT22;57944;48.722;9.316;2023-02-28T03:51:41;-1.40;99.90
70475;DHT22;57944;48.722;9.316;2023-02-28T03:54:21;-1.40;99.90
70475;DHT22;57944;48.722;9.316;2023-02-28T03:56:57;-1.30;99.90
70475;DHT22;57944;48.722;9.316;2023-02-28T03:59:35;-1.30;99.90
70475;DHT22;57944;48.722;9.316;2023-02-28T04:02:10;-1.40;99.90
70475;DHT22;57944;48.722;9.316;2023-02-28T04:04:40;-1.40;99.90
70475;DHT22;57944;48.722;9.316;2023-02-28T04:07:12;-1.20;99.90
70475;DHT22;57944;48.722;9.316;2023-02-28T04:09:45;-1.10;99.90
70475;DHT22;57944;48.722;9.316;2023-02-28T04:12:15;-1.00;99.90
70475;DHT22;57944;48.722;9.316;2023-02-28T04:14:45;-0.90;99.90
70475;DHT22;57944;48.722;9.316;2023-02-28T04:17:15;-1.00;99.90
70475;DHT22;57944;48.722;9.316;2023-02-28T04:19:45;-1.00;99.90
70475;DHT22;57944;48.722;9.316;2023-02-28T04:22:15;-0.90;99.90
70475;DHT22;57944;48.722;9.316;2023-02-28T04:24:48;-1.00;99.90
70475;DHT22;57944;48.722;9.316;2023-02-28T04:27:18;-1.00;99.90
70475;DHT22;57944;48.722;9.316;2023-02-28T04:29:48;-1.00;99.90
70475;DHT22;57944;48.722;9.316;2023-02-28T04:32:18;-0.90;99.90
70475;DHT22;57944;48.722;9.316;2023-02-28T04:34:48;-0.80;99.90
70475;DHT22;57944;48.722;9.316;2023-02-28T04:37:18;-0.80;99.90
70475;DHT22;57944;48.722;9.316;2023-02-28T04:39:57;-0.80;99.90
70475;DHT22;57944;48.722;9.316;2023-02-28T04:42:27;-0.90;99.90
70475;DHT22;57944;48.722;9.316;2023-02-28T04:45:02;-0.80;99.90
70475;DHT22;57944;48.722;9.316;2023-02-28T04:47:33;-0.80;99.90
70475;DHT22;57944;48.722;9.316;2023-02-28T04:50:04;-0.80;99.90
70475;DHT22;57944;48.722;9.316;2023-02-28T04:52:35;-0.90;99.90
70475;DHT22;57944;48.722;9.316;2023-02-28T04:55:09;-0.80;99.90
70475;DHT22;57944;48.722;9.316;2023-02-28T04:57:40;-0.90;99.90
70475;DHT22;57944;48.722;9.316;2023-02-28T05:00:11;-0.70;99.90
70475;DHT22;57944;48.722;9.316;2023-02-28T05:02:43;-0.70;99.90
70475;DHT22;57944;48.722;9.316;2023-02-28T05:05:13;-0.80;99.90
70475;DHT22;57944;48.722;9.316;2023-02-28T05:07:45;-0.80;99.90
70475;DHT22;57944;48.722;9.316;2023-02-28T05:10:18;-0.80;99.90
70475;DHT22;57944;48.722;9.316;2023-02-28T05:12:48;-0.90;99.90
70475;DHT22;57944;48.722;9.316;2023-02-28T05:15:18;-0.90;99.90
70475;DHT22;57944;48.722;9.316;2023-02-28T05:17:48;-0.90;99.90
70475;DHT22;57944;48.722;9.316;2023-02-28T05:20:18;-0.90;99.90
70475;DHT22;57944;48.722;9.316;2023-02-28T05:22:49;-1.00;99.90
70475;DHT22;57944;48.722;9.316;2023-02-28T05:25:22;-1.00;99.90
70475;DHT22;57944;48.722;9.316;2023-02-28T05:27:52;-1.00;99.90
70475;DHT22;57944;48.722;9.316;2023-02-28T05:30:22;-1.10;99.90
70475;DHT22;57944;48.722;9.316;2023-02-28T05:32:52;-1.10;99.90
70475;DHT22;57944;48.722;9.316;2023-02-28T05:35:22;-1.00;99.90
70475;DHT22;57944;48.722;9.316;2023-02-28T05:37:52;-1.00;99.90
70475;DHT22;57944;48.722;9.316;2023-02-28T05:40:25;-0.90;99.90
70475;DHT22;57944;48.722;9.316;2023-02-28T05:42:55;-1.00;99.90
70475;DHT22;57944;48.722;9.316;2023-02-28T05:45:25;-1.00;99.90
70475;DHT22;57944;48.722;9.316;2023-02-28T05:47:55;-1.10;99.90
70475;DHT22;57944;48.722;9.316;2023-02-28T05:50:25;-1.00;99.90
70475;DHT22;57944;48.722;9.316;2023-02-28T05:52:56;-1.00;99.90
70475;DHT22;57944;48.722;9.316;2023-02-28T05:55:28;-1.10;99.90
70475;DHT22;57944;48.722;9.316;2023-02-28T05:57:59;-1.10;99.90
70475;DHT22;57944;48.722;9.316;2023-02-28T06:00:29;-1.10;99.90
70475;DHT22;57944;48.722;9.316;2023-02-28T06:02:59;-1.10;99.90
70475;DHT22;57944;48.722;9.316;2023-02-28T06:05:29;-1.10;99.90
70475;DHT22;57944;48.722;9.316;2023-02-28T06:07:59;-1.00;99.90
70475;DHT22;57944;48.722;9.316;2023-02-28T06:10:32;-0.90;99.90
70475;DHT22;57944;48.722;9.316;2023-02-28T06:13:03;-0.90;99.90
70475;DHT22;57944;48.722;9.316;2023-02-28T06:15:34;-0.70;99.90
70475;DHT22;57944;48.722;9.316;2023-02-28T06:18:04;-0.80;99.90
70475;DHT22;57944;48.722;9.316;2023-02-28T06:20:35;-0.80;99.90
70475;DHT22;57944;48.722;9.316;2023-02-28T06:23:05;-0.80;99.90
70475;DHT22;57944;48.722;9.316;2023-02-28T06:25:37;-0.40;99.90
70475;DHT22;57944;48.722;9.316;2023-02-28T06:28:07;-0.30;99.90
70475;DHT22;57944;48.722;9.316;2023-02-28T06:30:37;-0.40;99.90
70475;DHT22;57944;48.722;9.316;2023-02-28T06:33:08;-0.50;99.90
70475;DHT22;57944;48.722;9.316;2023-02-28T06:35:39;-0.50;99.90
70475;DHT22;57944;48.722;9.316;2023-02-28T06:38:09;-0.50;99.90
70475;DHT22;57944;48.722;9.316;2023-02-28T06:40:41;-0.40;99.90
70475;DHT22;57944;48.722;9.316;2023-02-28T06:43:11;-0.30;99.90
70475;DHT22;57944;48.722;9.316;2023-02-28T06:45:42;-0.10;99.90
70475;DHT22;57944;48.722;9.316;2023-02-28T06:48:13;-0.30;99.90
70475;DHT22;57944;48.722;9.316;2023-02-28T06:50:44;-0.30;99.90
70475;DHT22;57944;48.722;9.316;2023-02-28T06:53:14;-0.50;99.90
70475;DHT22;57944;48.722;9.316;2023-02-28T06:55:47;-0.50;99.90
70475;DHT22;57944;48.722;9.316;2023-02-28T06:58:17;-0.50;99.90
70475;DHT22;57944;48.722;9.316;2023-02-28T07:00:50;-0.50;99.90
70475;DHT22;57944;48.722;9.316;2023-02-28T07:03:21;-0.40;99.90
70475;DHT22;57944;48.722;9.316;2023-02-28T07:05:51;-0.40;99.90
70475;DHT22;57944;48.722;9.316;2023-02-28T07:08:23;-0.40;99.90
70475;DHT22;57944;48.722;9.316;2023-02-28T07:10:56;-0.50;99.90
70475;DHT22;57944;48.722;9.316;2023-02-28T07:13:26;-0.40;99.90
70475;DHT22;57944;48.722;9.316;2023-02-28T07:15:58;-0.40;99.90
70475;DHT22;57944;48.722;9.316;2023-02-28T07:18:30;-0.40;99.90
70475;DHT22;57944;48.722;9.316;2023-02-28T07:21:02;-0.30;99.90
70475;DHT22;57944;48.722;9.316;2023-02-28T07:23:35;-0.10;99.90
70475;DHT22;57944;48.722;9.316;2023-02-28T07:26:12;-0.10;99.90
70475;DHT22;57944;48.722;9.316;2023-02-28T07:28:46;0.00;99.90
70475;DHT22;57944;48.722;9.316;2023-02-28T07:31:18;0.00;99.90
70475;DHT22;57944;48.722;9.316;2023-02-28T07:33:48;0.20;99.90
70475;DHT22;57944;48.722;9.316;2023-02-28T07:36:18;0.30;99.90
70475;DHT22;57944;48.722;9.316;2023-02-28T07:38:49;0.40;99.90
70475;DHT22;57944;48.722;9.316;2023-02-28T07:41:22;0.30;99.90
70475;DHT22;57944;48.722;9.316;2023-02-28T07:43:55;0.30;99.90
70475;DHT22;57944;48.722;9.316;2023-02-28T07:46:26;0.30;99.90
70475;DHT22;57944;48.722;9.316;2023-02-28T07:49:03;0.30;99.90
70475;DHT22;57944;48.722;9.316;2023-02-28T07:51:34;0.40;99.90
70475;DHT22;57944;48.722;9.316;2023-02-28T07:54:05;0.40;99.90
70475;DHT22;57944;48.722;9.316;2023-02-28T07:56:37;0.40;99.90
70475;DHT22;57944;48.722;9.316;2023-02-28T07:59:07;0.40;99.90
70475;DHT22;57944;48.722;9.316;2023-02-28T08:01:37;0.40;99.90
70475;DHT22;57944;48.722;9.316;2023-02-28T08:04:07;0.40;99.90
70475;DHT22;57944;48.722;9.316;2023-02-28T08:06:37;0.50;99.90
70475;DHT22;57944;48.722;9.316;2023-02-28T08:09:07;0.60;99.90
70475;DHT22;57944;48.722;9.316;2023-02-28T08:11:41;0.90;99.90
70475;DHT22;57944;48.722;9.316;2023-02-28T08:14:11;0.90;99.90
70475;DHT22;57944;48.722;9.316;2023-02-28T08:16:40;0.80;99.90
70475;DHT22;57944;48.722;9.316;2023-02-28T08:19:11;0.70;99.90
70475;DHT22;57944;48.722;9.316;2023-02-28T08:21:41;0.70;99.90
70475;DHT22;57944;48.722;9.316;2023-02-28T08:24:11;0.90;99.90
70475;DHT22;57944;48.722;9.316;2023-02-28T08:26:43;1.00;99.90
70475;DHT22;57944;48.722;9.316;2023-02-28T08:29:14;1.10;99.90
70475;DHT22;57944;48.722;9.316;2023-02-28T08:31:44;1.30;99.90
70475;DHT22;57944;48.722;9.316;2023-02-28T08:34:16;1.30;99.90
70475;DHT22;57944;48.722;9.316;2023-02-28T08:36:46;1.20;99.90
70475;DHT22;57944;48.722;9.316;2023-02-28T08:39:16;1.40;99.90
70475;DHT22;57944;48.722;9.316;2023-02-28T08:41:49;1.60;99.90
70475;DHT22;57944;48.722;9.316;2023-02-28T08:44:33;1.60;99.90
70475;DHT22;57944;48.722;9.316;2023-02-28T08:47:03;1.60;99.90
70475;DHT22;57944;48.722;9.316;2023-02-28T08:49:33;1.60;99.90
70475;DHT22;57944;48.722;9.316;2023-02-28T08:52:04;1.50;99.90
70475;DHT22;57944;48.722;9.316;2023-02-28T08:54:35;1.30;99.90
70475;DHT22;57944;48.722;9.316;2023-02-28T08:57:08;1.30;99.90
70475;DHT22;57944;48.722;9.316;2023-02-28T08:59:38;1.20;99.90
70475;DHT22;57944;48.722;9.316;2023-02-28T09:02:09;1.40;99.90
70475;DHT22;57944;48.722;9.316;2023-02-28T09:04:42;1.60;99.90
70475;DHT22;57944;48.722;9.316;2023-02-28T09:07:12;1.50;99.90
70475;DHT22;57944;48.722;9.316;2023-02-28T09:09:42;1.60;99.90
70475;DHT22;57944;48.722;9.316;2023-02-28T09:12:25;1.70;99.90
70475;DHT22;57944;48.722;9.316;2023-02-28T09:14:56;1.70;99.90
70475;DHT22;57944;48.722;9.316;2023-02-28T09:17:27;1.80;99.90
70475;DHT22;57944;48.722;9.316;2023-02-28T09:19:57;1.80;99.90
70475;DHT22;57944;48.722;9.316;2023-02-28T09:22:27;2.00;99.90
70475;DHT22;57944;48.722;9.316;2023-02-28T09:24:58;2.00;99.90
70475;DHT22;57944;48.722;9.316;2023-02-28T09:27:30;2.10;99.90
70475;DHT22;57944;48.722;9.316;2023-02-28T09:30:00;2.60;99.90
70475;DHT22;57944;48.722;9.316;2023-02-28T09:32:30;2.60;99.90
70475;DHT22;57944;48.722;9.316;2023-02-28T09:35:00;2.60;99.90
70475;DHT22;57944;48.722;9.316;2023-02-28T09:37:30;2.90;99.90
70475;DHT22;57944;48.722;9.316;2023-02-28T09:40:00;3.00;99.90
70475;DHT22;57944;48.722;9.316;2023-02-28T09:42:34;3.00;99.90
70475;DHT22;57944;48.722;9.316;2023-02-28T09:45:10;2.90;99.90
70475;DHT22;57944;48.722;9.316;2023-02-28T09:47:48;2.90;99.90
70475;DHT22;57944;48.722;9.316;2023-02-28T09:50:30;2.90;99.90
70475;DHT22;57944;48.722;9.316;2023-02-28T09:53:10;3.20;99.90
70475;DHT22;57944;48.722;9.316;2023-02-28T09:55:50;3.40;99.90
70475;DHT22;57944;48.722;9.316;2023-02-28T09:58:32;3.80;99.90
70475;DHT22;57944;48.722;9.316;2023-02-28T10:01:11;4.10;99.70
70475;DHT22;57944;48.722;9.316;2023-02-28T10:03:56;4.20;99.80
70475;DHT22;57944;48.722;9.316;2023-02-28T10:06:32;4.20;99.10
70475;DHT22;57944;48.722;9.316;2023-02-28T10:09:08;4.80;99.50
70475;DHT22;57944;48.722;9.316;2023-02-28T10:11:44;5.20;99.90
70475;DHT22;57944;48.722;9.316;2023-02-28T10:14:20;5.60;99.90
70475;DHT22;57944;48.722;9.316;2023-02-28T10:16:55;5.50;97.40
70475;DHT22;57944;48.722;9.316;2023-02-28T10:19:31;5.70;98.70
70475;DHT22;57944;48.722;9.316;2023-02-28T10:22:08;5.90;99.30
70475;DHT22;57944;48.722;9.316;2023-02-28T10:24:44;6.40;99.30
70475;DHT22;57944;48.722;9.316;2023-02-28T10:27:17;6.70;98.40
70475;DHT22;57944;48.722;9.316;2023-02-28T10:29:55;6.80;97.70
70475;DHT22;57944;48.722;9.316;2023-02-28T10:32:29;6.50;98.10
70475;DHT22;57944;48.722;9.316;2023-02-28T10:35:10;6.70;97.10
70475;DHT22;57944;48.722;9.316;2023-02-28T10:37:47;6.90;96.30
70475;DHT22;57944;48.722;9.316;2023-02-28T10:40:29;7.10;95.20
70475;DHT22;57944;48.722;9.316;2023-02-28T10:43:05;7.60;97.90
70475;DHT22;57944;48.722;9.316;2023-02-28T10:46:02;7.20;96.70
70475;DHT22;57944;48.722;9.316;2023-02-28T10:48:37;7.30;95.00
70475;DHT22;57944;48.722;9.316;2023-02-28T10:51:11;7.60;95.60
70475;DHT22;57944;48.722;9.316;2023-02-28T10:53:48;8.80;93.10
70475;DHT22;57944;48.722;9.316;2023-02-28T10:56:27;9.10;93.80
70475;DHT22;57944;48.722;9.316;2023-02-28T10:59:01;9.30;92.30
70475;DHT22;57944;48.722;9.316;2023-02-28T11:01:41;10.20;90.00
70475;DHT22;57944;48.722;9.316;2023-02-28T11:04:32;9.80;91.40
70475;DHT22;57944;48.722;9.316;2023-02-28T11:07:10;10.30;89.00
70475;DHT22;57944;48.722;9.316;2023-02-28T11:09:52;10.70;88.90
70475;DHT22;57944;48.722;9.316;2023-02-28T11:12:28;11.70;91.90
70475;DHT22;57944;48.722;9.316;2023-02-28T11:15:21;11.80;91.70
70475;DHT22;57944;48.722;9.316;2023-02-28T11:17:58;11.30;92.80
70475;DHT22;57944;48.722;9.316;2023-02-28T11:20:33;12.00;91.90
70475;DHT22;57944;48.722;9.316;2023-02-28T11:23:04;12.00;80.30
70475;DHT22;57944;48.722;9.316;2023-02-28T11:25:40;11.60;79.40
70475;DHT22;57944;48.722;9.316;2023-02-28T11:28:25;10.60;78.90
70475;DHT22;57944;48.722;9.316;2023-02-28T11:31:06;9.70;84.20
70475;DHT22;57944;48.722;9.316;2023-02-28T11:33:50;9.80;82.90
70475;DHT22;57944;48.722;9.316;2023-02-28T11:36:24;10.60;79.30
70475;DHT22;57944;48.722;9.316;2023-02-28T11:38:58;9.70;82.40
70475;DHT22;57944;48.722;9.316;2023-02-28T11:41:47;9.50;84.20
70475;DHT22;57944;48.722;9.316;2023-02-28T11:44:47;9.60;86.20
70475;DHT22;57944;48.722;9.316;2023-02-28T11:47:33;9.50;83.60
70475;DHT22;57944;48.722;9.316;2023-02-28T11:50:20;8.80;85.80
70475;DHT22;57944;48.722;9.316;2023-02-28T11:52:59;8.40;84.70
70475;DHT22;57944;48.722;9.316;2023-02-28T11:55:34;8.20;84.60
70475;DHT22;57944;48.722;9.316;2023-02-28T11:58:21;7.80;90.10
70475;DHT22;57944;48.722;9.316;2023-02-28T12:01:09;7.80;84.90
70475;DHT22;57944;48.722;9.316;2023-02-28T12:04:00;6.80;86.40
70475;DHT22;57944;48.722;9.316;2023-02-28T12:06:45;6.40;90.30
70475;DHT22;57944;48.722;9.316;2023-02-28T12:09:38;6.70;92.90
70475;DHT22;57944;48.722;9.316;2023-02-28T12:12:23;6.40;90.60
70475;DHT22;57944;48.722;9.316;2023-02-28T12:15:24;6.00;88.40
70475;DHT22;57944;48.722;9.316;2023-02-28T12:18:12;5.40;90.80
70475;DHT22;57944;48.722;9.316;2023-02-28T12:20:59;5.20;90.30
70475;DHT22;57944;48.722;9.316;2023-02-28T12:24:08;5.20;91.40
70475;DHT22;57944;48.722;9.316;2023-02-28T12:26:52;5.10;91.50
70475;DHT22;57944;48.722;9.316;2023-02-28T12:29:27;5.30;93.20
70475;DHT22;57944;48.722;9.316;2023-02-28T12:32:05;5.50;94.70
70475;DHT22;57944;48.722;9.316;2023-02-28T12:34:44;5.90;94.40
70475;DHT22;57944;48.722;9.316;2023-02-28T12:37:20;5.80;94.30
70475;DHT22;57944;48.722;9.316;2023-02-28T12:40:02;6.00;94.70
70475;DHT22;57944;48.722;9.316;2023-02-28T12:42:39;6.30;95.10
70475;DHT22;57944;48.722;9.316;2023-02-28T12:45:17;6.30;92.40
70475;DHT22;57944;48.722;9.316;2023-02-28T12:47:55;6.20;95.30
70475;DHT22;57944;48.722;9.316;2023-02-28T12:50:27;6.40;95.30
70475;DHT22;57944;48.722;9.316;2023-02-28T12:53:00;6.40;92.80
70475;DHT22;57944;48.722;9.316;2023-02-28T12:55:40;6.40;92.70
70475;DHT22;57944;48.722;9.316;2023-02-28T12:58:20;5.90;91.30
70475;DHT22;57944;48.722;9.316;2023-02-28T13:04:42;6.10;95.30
70475;DHT22;57944;48.722;9.316;2023-02-28T13:10:49;6.30;93.30
70475;DHT22;57944;48.722;9.316;2023-02-28T13:13:24;6.10;94.30
70475;DHT22;57944;48.722;9.316;2023-02-28T13:16:03;6.20;95.00
70475;DHT22;57944;48.722;9.316;2023-02-28T13:18:37;6.20;93.10
70475;DHT22;57944;48.722;9.316;2023-02-28T13:21:22;5.80;92.60
70475;DHT22;57944;48.722;9.316;2023-02-28T13:24:00;5.60;93.00
70475;DHT22;57944;48.722;9.316;2023-02-28T13:33:27;6.00;92.70
70475;DHT22;57944;48.722;9.316;2023-02-28T13:36:08;5.70;91.40
70475;DHT22;57944;48.722;9.316;2023-02-28T13:38:42;5.50;92.00
70475;DHT22;57944;48.722;9.316;2023-02-28T13:41:45;5.30;92.10
70475;DHT22;57944;48.722;9.316;2023-02-28T13:44:19;5.50;94.10
70475;DHT22;57944;48.722;9.316;2023-02-28T13:47:25;5.50;92.40
70475;DHT22;57944;48.722;9.316;2023-02-28T13:50:24;5.50;92.70
70475;DHT22;57944;48.722;9.316;2023-02-28T13:53:30;5.50;92.60
70475;DHT22;57944;48.722;9.316;2023-02-28T13:56:26;5.60;94.10
70475;DHT22;57944;48.722;9.316;2023-02-28T13:59:16;5.90;94.20
70475;DHT22;57944;48.722;9.316;2023-02-28T14:02:06;5.70;92.10
70475;DHT22;57944;48.722;9.316;2023-02-28T14:05:05;5.70;93.00
70475;DHT22;57944;48.722;9.316;2023-02-28T14:08:05;5.70;93.80
70475;DHT22;57944;48.722;9.316;2023-02-28T14:10:44;5.60;92.40
70475;DHT22;57944;48.722;9.316;2023-02-28T14:13:44;5.70;92.10
70475;DHT22;57944;48.722;9.316;2023-02-28T14:16:19;5.60;92.00
70475;DHT22;57944;48.722;9.316;2023-02-28T14:18:56;5.60;92.20
70475;DHT22;57944;48.722;9.316;2023-02-28T14:21:34;5.50;92.00
70475;DHT22;57944;48.722;9.316;2023-02-28T14:27:37;5.70;92.10
70475;DHT22;57944;48.722;9.316;2023-02-28T14:30:36;5.80;92.60
70475;DHT22;57944;48.722;9.316;2023-02-28T14:33:19;5.70;92.00
70475;DHT22;57944;48.722;9.316;2023-02-28T14:36:17;5.70;92.60
70475;DHT22;57944;48.722;9.316;2023-02-28T14:38:56;5.60;92.90
70475;DHT22;57944;48.722;9.316;2023-02-28T14:41:30;5.50;92.20
70475;DHT22;57944;48.722;9.316;2023-02-28T14:44:15;5.80;93.90
70475;DHT22;57944;48.722;9.316;2023-02-28T14:46:49;5.60;92.10
70475;DHT22;57944;48.722;9.316;2023-02-28T14:49:26;5.60;92.00
70475;DHT22;57944;48.722;9.316;2023-02-28T14:52:03;5.50;92.40
70475;DHT22;57944;48.722;9.316;2023-02-28T14:54:40;5.40;92.20
70475;DHT22;57944;48.722;9.316;2023-02-28T14:57:21;5.30;92.40
70475;DHT22;57944;48.722;9.316;2023-02-28T15:00:00;5.30;93.20
70475;DHT22;57944;48.722;9.316;2023-02-28T15:02:39;5.40;93.70
70475;DHT22;57944;48.722;9.316;2023-02-28T15:05:24;5.80;94.60
70475;DHT22;57944;48.722;9.316;2023-02-28T15:08:11;5.60;93.10
70475;DHT22;57944;48.722;9.316;2023-02-28T15:10:51;5.40;92.50
70475;DHT22;57944;48.722;9.316;2023-02-28T15:13:26;5.30;93.40
70475;DHT22;57944;48.722;9.316;2023-02-28T15:16:06;5.30;93.10
70475;DHT22;57944;48.722;9.316;2023-02-28T15:18:46;5.30;92.90
70475;DHT22;57944;48.722;9.316;2023-02-28T15:21:21;5.20;93.50
70475;DHT22;57944;48.722;9.316;2023-02-28T15:23:55;5.30;94.10
70475;DHT22;57944;48.722;9.316;2023-02-28T15:26:33;5.40;94.50
70475;DHT22;57944;48.722;9.316;2023-02-28T15:29:11;5.50;94.20
70475;DHT22;57944;48.722;9.316;2023-02-28T15:31:48;5.70;96.20
70475;DHT22;57944;48.722;9.316;2023-02-28T15:34:33;5.80;92.80
70475;DHT22;57944;48.722;9.316;2023-02-28T15:37:29;5.80;93.90
70475;DHT22;57944;48.722;9.316;2023-02-28T15:40:17;5.90;95.70
70475;DHT22;57944;48.722;9.316;2023-02-28T15:43:07;6.20;95.70
70475;DHT22;57944;48.722;9.316;2023-02-28T15:45:46;6.10;92.80
70475;DHT22;57944;48.722;9.316;2023-02-28T15:48:20;5.70;92.90
70475;DHT22;57944;48.722;9.316;2023-02-28T15:50:53;5.40;92.70
70475;DHT22;57944;48.722;9.316;2023-02-28T15:53:30;5.40;94.20
70475;DHT22;57944;48.722;9.316;2023-02-28T15:56:03;5.30;93.40
70475;DHT22;57944;48.722;9.316;2023-02-28T15:58:45;5.40;94.30
70475;DHT22;57944;48.722;9.316;2023-02-28T16:01:23;5.40;94.90
70475;DHT22;57944;48.722;9.316;2023-02-28T16:04:00;5.30;93.80
70475;DHT22;57944;48.722;9.316;2023-02-28T16:06:37;5.30;94.00
70475;DHT22;57944;48.722;9.316;2023-02-28T16:09:11;5.10;94.60
70475;DHT22;57944;48.722;9.316;2023-02-28T16:11:46;4.90;94.80
70475;DHT22;57944;48.722;9.316;2023-02-28T16:14:22;4.90;94.40
70475;DHT22;57944;48.722;9.316;2023-02-28T16:16:56;4.80;94.20
70475;DHT22;57944;48.722;9.316;2023-02-28T16:19:32;4.90;96.10
70475;DHT22;57944;48.722;9.316;2023-02-28T16:22:02;4.90;95.90
70475;DHT22;57944;48.722;9.316;2023-02-28T16:24:32;4.90;96.30
70475;DHT22;57944;48.722;9.316;2023-02-28T16:27:02;4.60;95.10
70475;DHT22;57944;48.722;9.316;2023-02-28T16:29:36;4.50;95.10
70475;DHT22;57944;48.722;9.316;2023-02-28T16:32:07;4.40;94.90
70475;DHT22;57944;48.722;9.316;2023-02-28T16:34:37;4.10;94.80
70475;DHT22;57944;48.722;9.316;2023-02-28T16:37:11;4.10;96.10
70475;DHT22;57944;48.722;9.316;2023-02-28T16:39:43;3.90;96.10
70475;DHT22;57944;48.722;9.316;2023-02-28T16:42:21;3.70;95.60
70475;DHT22;57944;48.722;9.316;2023-02-28T16:44:57;3.60;96.20
70475;DHT22;57944;48.722;9.316;2023-02-28T16:47:27;3.50;98.10
70475;DHT22;57944;48.722;9.316;2023-02-28T16:49:59;3.40;96.50
70475;DHT22;57944;48.722;9.316;2023-02-28T16:52:29;3.30;97.00
70475;DHT22;57944;48.722;9.316;2023-02-28T16:54:59;3.30;98.40
70475;DHT22;57944;48.722;9.316;2023-02-28T16:57:30;3.30;97.90
70475;DHT22;57944;48.722;9.316;2023-02-28T17:00:03;3.20;97.50